sensor_id;sensor_type;location;lat;lon;timestamp;pressure;altitude;pressure_sealevel;temperature;humidity
35151;BME280;55720;51.972;4.624;2022-07-01T00:01:58;101628.25;;;13.91;100.00
35151;BME280;55720;51.972;4.624;2022-07-01T00:04:24;101631.03;;;13.91;100.00
35151;BME280;55720;51.972;4.624;2022-07-01T00:06:56;101624.69;;;13.90;100.00
35151;BME280;55720;51.972;4.624;2022-07-01T00:09:21;101628.00;;;13.84;100.00
35151;BME280;55720;51.972;4.624;2022-07-01T00:11:47;101637.09;;;13.84;100.00
35151;BME280;55720;51.972;4.624;2022-07-01T00:14:12;101625.22;;;13.84;100.00
35151;BME280;55720;51.972;4.624;2022-07-01T00:16:38;101618.44;;;13.81;100.00
35151;BME280;55720;51.972;4.624;2022-07-01T00:19:04;101615.69;;;13.81;100.00
35151;BME280;55720;51.972;4.624;2022-07-01T00:21:30;101605.63;;;13.76;100.00
35151;BME280;55720;51.972;4.624;2022-07-01T00:23:55;101607.59;;;13.76;100.00
35151;BME280;55720;51.972;4.624;2022-07-01T00:26:20;101615.06;;;13.75;100.00
35151;BME280;55720;51.972;4.624;2022-07-01T00:28:46;101613.78;;;13.73;100.00
35151;BME280;55720;51.972;4.624;2022-07-01T00:31:11;101616.84;;;13.71;100.00
35151;BME280;55720;51.972;4.624;2022-07-01T00:33:37;101624.69;;;13.69;100.00
35151;BME280;55720;51.972;4.624;2022-07-01T00:36:02;101618.97;;;13.74;100.00
35151;BME280;55720;51.972;4.624;2022-07-01T00:38:28;101603.88;;;13.72;100.00
35151;BME280;55720;51.972;4.624;2022-07-01T00:40:54;101606.84;;;13.67;100.00
35151;BME280;55720;51.972;4.624;2022-07-01T00:43:20;101597.94;;;13.61;100.00
35151;BME280;55720;51.972;4.624;2022-07-01T00:45:50;101595.53;;;13.60;100.00
35151;BME280;55720;51.972;4.624;2022-07-01T00:48:16;101586.44;;;13.59;100.00
35151;BME280;55720;51.972;4.624;2022-07-01T00:50:42;101582.38;;;13.57;100.00
35151;BME280;55720;51.972;4.624;2022-07-01T00:53:08;101557.53;;;13.57;100.00
35151;BME280;55720;51.972;4.624;2022-07-01T00:55:33;101543.97;;;13.52;100.00
35151;BME280;55720;51.972;4.624;2022-07-01T00:57:59;101538.59;;;13.55;100.00
35151;BME280;55720;51.972;4.624;2022-07-01T01:00:24;101532.44;;;13.50;100.00
35151;BME280;55720;51.972;4.624;2022-07-01T01:02:51;101530.50;;;13.50;100.00
35151;BME280;55720;51.972;4.624;2022-07-01T01:05:17;101525.47;;;13.52;100.00
35151;BME280;55720;51.972;4.624;2022-07-01T01:07:48;101512.84;;;13.43;100.00
35151;BME280;55720;51.972;4.624;2022-07-01T01:10:16;101503.63;;;13.39;100.00
35151;BME280;55720;51.972;4.624;2022-07-01T01:12:42;101499.00;;;13.30;100.00
35151;BME280;55720;51.972;4.624;2022-07-01T01:15:07;101488.16;;;13.25;100.00
35151;BME280;55720;51.972;4.624;2022-07-01T01:17:33;101489.56;;;13.31;100.00
35151;BME280;55720;51.972;4.624;2022-07-01T01:19:59;101499.47;;;13.32;100.00
35151;BME280;55720;51.972;4.624;2022-07-01T01:22:24;101484.72;;;13.28;100.00
35151;BME280;55720;51.972;4.624;2022-07-01T01:24:50;101463.88;;;13.40;100.00
35151;BME280;55720;51.972;4.624;2022-07-01T01:27:15;101486.81;;;13.31;100.00
35151;BME280;55720;51.972;4.624;2022-07-01T01:29:42;101524.97;;;13.29;100.00
35151;BME280;55720;51.972;4.624;2022-07-01T01:32:07;101567.31;;;13.25;100.00
35151;BME280;55720;51.972;4.624;2022-07-01T01:34:34;101567.47;;;13.28;100.00
35151;BME280;55720;51.972;4.624;2022-07-01T01:37:00;101580.50;;;13.19;100.00
35151;BME280;55720;51.972;4.624;2022-07-01T01:39:26;101587.75;;;13.24;100.00
35151;BME280;55720;51.972;4.624;2022-07-01T01:41:51;101596.38;;;13.22;100.00
35151;BME280;55720;51.972;4.624;2022-07-01T01:44:17;101597.66;;;13.25;100.00
35151;BME280;55720;51.972;4.624;2022-07-01T01:46:43;101581.78;;;13.22;100.00
35151;BME280;55720;51.972;4.624;2022-07-01T01:49:09;101589.53;;;13.28;100.00
35151;BME280;55720;51.972;4.624;2022-07-01T01:51:34;101594.72;;;13.30;100.00
35151;BME280;55720;51.972;4.624;2022-07-01T01:54:00;101556.78;;;13.27;100.00
35151;BME280;55720;51.972;4.624;2022-07-01T01:56:25;101541.69;;;13.24;100.00
35151;BME280;55720;51.972;4.624;2022-07-01T01:58:51;101534.09;;;13.21;100.00
35151;BME280;55720;51.972;4.624;2022-07-01T02:01:18;101528.44;;;13.18;100.00
35151;BME280;55720;51.972;4.624;2022-07-01T02:03:45;101509.47;;;13.16;100.00
35151;BME280;55720;51.972;4.624;2022-07-01T02:06:12;101506.84;;;13.20;100.00
35151;BME280;55720;51.972;4.624;2022-07-01T02:08:38;101501.00;;;13.21;100.00
35151;BME280;55720;51.972;4.624;2022-07-01T02:11:04;101513.00;;;13.17;100.00
35151;BME280;55720;51.972;4.624;2022-07-01T02:13:30;101529.41;;;13.13;100.00
35151;BME280;55720;51.972;4.624;2022-07-01T02:15:55;101535.75;;;13.14;100.00
35151;BME280;55720;51.972;4.624;2022-07-01T02:18:21;101540.13;;;13.15;100.00
35151;BME280;55720;51.972;4.624;2022-07-01T02:20:47;101535.28;;;13.12;100.00
35151;BME280;55720;51.972;4.624;2022-07-01T02:23:12;101538.50;;;13.14;100.00
35151;BME280;55720;51.972;4.624;2022-07-01T02:25:37;101538.66;;;13.17;100.00
35151;BME280;55720;51.972;4.624;2022-07-01T02:28:03;101535.22;;;13.20;100.00
35151;BME280;55720;51.972;4.624;2022-07-01T02:30:28;101516.94;;;13.16;100.00
35151;BME280;55720;51.972;4.624;2022-07-01T02:32:56;101518.06;;;13.15;100.00
35151;BME280;55720;51.972;4.624;2022-07-01T02:35:22;101519.69;;;13.16;100.00
35151;BME280;55720;51.972;4.624;2022-07-01T02:37:48;101520.50;;;13.16;100.00
35151;BME280;55720;51.972;4.624;2022-07-01T02:40:13;101526.94;;;13.20;100.00
35151;BME280;55720;51.972;4.624;2022-07-01T02:42:39;101530.66;;;13.24;100.00
35151;BME280;55720;51.972;4.624;2022-07-01T02:45:06;101538.59;;;13.26;100.00
35151;BME280;55720;51.972;4.624;2022-07-01T02:47:36;101534.09;;;13.21;100.00
35151;BME280;55720;51.972;4.624;2022-07-01T02:50:07;101535.34;;;13.24;100.00
35151;BME280;55720;51.972;4.624;2022-07-01T02:52:34;101533.13;;;13.17;100.00
35151;BME280;55720;51.972;4.624;2022-07-01T02:55:03;101541.22;;;13.22;100.00
35151;BME280;55720;51.972;4.624;2022-07-01T02:57:30;101543.84;;;13.19;100.00
35151;BME280;55720;51.972;4.624;2022-07-01T02:59:55;101553.44;;;13.13;100.00
35151;BME280;55720;51.972;4.624;2022-07-01T03:02:21;101552.16;;;13.10;100.00
35151;BME280;55720;51.972;4.624;2022-07-01T03:04:47;101577.91;;;13.14;100.00
35151;BME280;55720;51.972;4.624;2022-07-01T03:07:14;101589.44;;;13.16;100.00
35151;BME280;55720;51.972;4.624;2022-07-01T03:09:39;101587.19;;;13.10;100.00
35151;BME280;55720;51.972;4.624;2022-07-01T03:12:09;101578.91;;;13.10;100.00
35151;BME280;55720;51.972;4.624;2022-07-01T03:14:57;101569.31;;;13.07;100.00
35151;BME280;55720;51.972;4.624;2022-07-01T03:17:24;101557.84;;;13.05;100.00
35151;BME280;55720;51.972;4.624;2022-07-01T03:19:50;101564.66;;;12.99;100.00
35151;BME280;55720;51.972;4.624;2022-07-01T03:22:17;101562.91;;;12.95;100.00
35151;BME280;55720;51.972;4.624;2022-07-01T03:24:42;101671.19;;;12.95;100.00
35151;BME280;55720;51.972;4.624;2022-07-01T03:27:08;101689.03;;;12.98;100.00
35151;BME280;55720;51.972;4.624;2022-07-01T03:29:33;101708.50;;;13.01;100.00
35151;BME280;55720;51.972;4.624;2022-07-01T03:31:59;101709.31;;;13.02;100.00
35151;BME280;55720;51.972;4.624;2022-07-01T03:34:24;101733.78;;;13.03;100.00
35151;BME280;55720;51.972;4.624;2022-07-01T03:36:49;101752.59;;;13.01;100.00
35151;BME280;55720;51.972;4.624;2022-07-01T03:39:15;101768.00;;;13.02;100.00
35151;BME280;55720;51.972;4.624;2022-07-01T03:41:40;101780.34;;;13.05;100.00
35151;BME280;55720;51.972;4.624;2022-07-01T03:44:05;101887.69;;;13.01;100.00
35151;BME280;55720;51.972;4.624;2022-07-01T03:46:33;102023.78;;;13.05;100.00
35151;BME280;55720;51.972;4.624;2022-07-01T03:49:01;102037.13;;;13.12;100.00
35151;BME280;55720;51.972;4.624;2022-07-01T03:51:26;102046.22;;;13.12;100.00
35151;BME280;55720;51.972;4.624;2022-07-01T03:53:51;102059.47;;;13.10;100.00
35151;BME280;55720;51.972;4.624;2022-07-01T03:56:35;102073.44;;;13.14;100.00
35151;BME280;55720;51.972;4.624;2022-07-01T03:59:01;102072.63;;;13.13;100.00
35151;BME280;55720;51.972;4.624;2022-07-01T04:01:26;102076.25;;;13.22;100.00
35151;BME280;55720;51.972;4.624;2022-07-01T04:03:52;102076.88;;;13.19;100.00
35151;BME280;55720;51.972;4.624;2022-07-01T04:06:18;102087.28;;;13.22;100.00
35151;BME280;55720;51.972;4.624;2022-07-01T04:08:44;102097.47;;;13.22;100.00
35151;BME280;55720;51.972;4.624;2022-07-01T04:11:10;102099.25;;;13.18;100.00
35151;BME280;55720;51.972;4.624;2022-07-01T04:13:36;102107.06;;;13.24;100.00
35151;BME280;55720;51.972;4.624;2022-07-01T04:16:04;102108.22;;;13.23;100.00
35151;BME280;55720;51.972;4.624;2022-07-01T04:18:29;102111.31;;;13.30;100.00
35151;BME280;55720;51.972;4.624;2022-07-01T04:20:56;102116.69;;;13.44;100.00
35151;BME280;55720;51.972;4.624;2022-07-01T04:23:39;102116.25;;;13.59;100.00
35151;BME280;55720;51.972;4.624;2022-07-01T04:26:05;102131.41;;;14.05;100.00
35151;BME280;55720;51.972;4.624;2022-07-01T04:28:30;102176.50;;;15.50;100.00
35151;BME280;55720;51.972;4.624;2022-07-01T04:30:55;102177.56;;;15.28;100.00
35151;BME280;55720;51.972;4.624;2022-07-01T04:33:21;102220.00;;;16.08;100.00
35151;BME280;55720;51.972;4.624;2022-07-01T04:35:46;102286.31;;;16.63;100.00
35151;BME280;55720;51.972;4.624;2022-07-01T04:38:12;102375.53;;;17.93;100.00
35151;BME280;55720;51.972;4.624;2022-07-01T04:40:37;102501.44;;;18.75;100.00
35151;BME280;55720;51.972;4.624;2022-07-01T04:43:02;102444.09;;;20.21;100.00
35151;BME280;55720;51.972;4.624;2022-07-01T04:45:27;102224.31;;;19.76;100.00
35151;BME280;55720;51.972;4.624;2022-07-01T04:47:53;102100.53;;;20.15;100.00
35151;BME280;55720;51.972;4.624;2022-07-01T04:50:18;101974.66;;;21.97;100.00
35151;BME280;55720;51.972;4.624;2022-07-01T04:52:44;101763.50;;;22.25;100.00
35151;BME280;55720;51.972;4.624;2022-07-01T04:55:09;101498.09;;;20.79;100.00
35151;BME280;55720;51.972;4.624;2022-07-01T04:57:34;101326.63;;;19.11;100.00
35151;BME280;55720;51.972;4.624;2022-07-01T05:00:00;101293.94;;;17.54;100.00
35151;BME280;55720;51.972;4.624;2022-07-01T05:02:25;101336.59;;;16.88;100.00
35151;BME280;55720;51.972;4.624;2022-07-01T05:04:50;101363.88;;;17.21;100.00
35151;BME280;55720;51.972;4.624;2022-07-01T05:07:16;101374.06;;;17.94;100.00
35151;BME280;55720;51.972;4.624;2022-07-01T05:09:54;101311.50;;;20.81;100.00
35151;BME280;55720;51.972;4.624;2022-07-01T05:12:20;101205.19;;;22.41;100.00
35151;BME280;55720;51.972;4.624;2022-07-01T05:14:45;101156.19;;;20.30;100.00
35151;BME280;55720;51.972;4.624;2022-07-01T05:17:11;101194.31;;;18.84;100.00
35151;BME280;55720;51.972;4.624;2022-07-01T05:19:36;101205.31;;;19.91;100.00
35151;BME280;55720;51.972;4.624;2022-07-01T05:22:20;101178.09;;;21.85;100.00
35151;BME280;55720;51.972;4.624;2022-07-01T05:24:45;101167.72;;;21.79;100.00
35151;BME280;55720;51.972;4.624;2022-07-01T05:27:10;101168.91;;;21.60;100.00
35151;BME280;55720;51.972;4.624;2022-07-01T05:29:36;101182.47;;;21.12;100.00
35151;BME280;55720;51.972;4.624;2022-07-01T05:32:01;101195.22;;;21.17;100.00
35151;BME280;55720;51.972;4.624;2022-07-01T05:34:27;101214.84;;;20.44;100.00
35151;BME280;55720;51.972;4.624;2022-07-01T05:36:52;101236.97;;;19.69;100.00
35151;BME280;55720;51.972;4.624;2022-07-01T05:39:18;101230.56;;;20.15;100.00
35151;BME280;55720;51.972;4.624;2022-07-01T05:41:44;101238.53;;;20.75;100.00
35151;BME280;55720;51.972;4.624;2022-07-01T05:44:10;101224.75;;;21.18;100.00
35151;BME280;55720;51.972;4.624;2022-07-01T05:46:36;101205.19;;;22.38;100.00
35151;BME280;55720;51.972;4.624;2022-07-01T05:49:01;101188.28;;;22.80;100.00
35151;BME280;55720;51.972;4.624;2022-07-01T05:51:27;101198.81;;;22.37;100.00
35151;BME280;55720;51.972;4.624;2022-07-01T05:53:52;101248.59;;;19.78;100.00
35151;BME280;55720;51.972;4.624;2022-07-01T05:56:17;101276.69;;;18.36;100.00
35151;BME280;55720;51.972;4.624;2022-07-01T05:58:43;101280.63;;;17.86;100.00
35151;BME280;55720;51.972;4.624;2022-07-01T06:01:08;101263.47;;;18.85;100.00
35151;BME280;55720;51.972;4.624;2022-07-01T06:03:34;101244.25;;;20.31;100.00
35151;BME280;55720;51.972;4.624;2022-07-01T06:05:59;101225.56;;;20.35;100.00
35151;BME280;55720;51.972;4.624;2022-07-01T06:08:24;101232.31;;;20.31;100.00
35151;BME280;55720;51.972;4.624;2022-07-01T06:10:50;101235.13;;;20.38;100.00
35151;BME280;55720;51.972;4.624;2022-07-01T06:13:15;101237.78;;;20.89;100.00
35151;BME280;55720;51.972;4.624;2022-07-01T06:15:41;101252.28;;;20.36;100.00
35151;BME280;55720;51.972;4.624;2022-07-01T06:18:07;101259.84;;;19.88;100.00
35151;BME280;55720;51.972;4.624;2022-07-01T06:20:32;101257.19;;;20.60;100.00
35151;BME280;55720;51.972;4.624;2022-07-01T06:22:57;101206.06;;;24.59;100.00
35151;BME280;55720;51.972;4.624;2022-07-01T06:25:23;101216.38;;;26.29;100.00
35151;BME280;55720;51.972;4.624;2022-07-01T06:27:49;101527.97;;;26.89;100.00
35151;BME280;55720;51.972;4.624;2022-07-01T06:30:14;101747.22;;;28.28;100.00
35151;BME280;55720;51.972;4.624;2022-07-01T06:32:39;101757.19;;;28.13;100.00
35151;BME280;55720;51.972;4.624;2022-07-01T06:35:05;101779.19;;;26.88;100.00
35151;BME280;55720;51.972;4.624;2022-07-01T06:37:32;101771.78;;;27.01;100.00
35151;BME280;55720;51.972;4.624;2022-07-01T06:40:00;101771.44;;;27.26;100.00
35151;BME280;55720;51.972;4.624;2022-07-01T06:42:25;101758.09;;;27.30;100.00
35151;BME280;55720;51.972;4.624;2022-07-01T06:44:50;101769.66;;;27.09;100.00
35151;BME280;55720;51.972;4.624;2022-07-01T06:47:16;101745.91;;;27.63;100.00
35151;BME280;55720;51.972;4.624;2022-07-01T06:49:42;101739.63;;;28.45;100.00
35151;BME280;55720;51.972;4.624;2022-07-01T06:52:07;101753.56;;;26.75;100.00
35151;BME280;55720;51.972;4.624;2022-07-01T06:54:32;101764.63;;;25.74;100.00
35151;BME280;55720;51.972;4.624;2022-07-01T06:57:03;101766.84;;;26.75;100.00
35151;BME280;55720;51.972;4.624;2022-07-01T06:59:28;101759.88;;;27.44;100.00
35151;BME280;55720;51.972;4.624;2022-07-01T07:01:54;101768.19;;;26.63;100.00
35151;BME280;55720;51.972;4.624;2022-07-01T07:04:19;101759.84;;;26.90;100.00
35151;BME280;55720;51.972;4.624;2022-07-01T07:06:44;101765.06;;;27.99;100.00
35151;BME280;55720;51.972;4.624;2022-07-01T07:09:10;101741.22;;;29.90;100.00
35151;BME280;55720;51.972;4.624;2022-07-01T07:11:35;101757.16;;;27.10;100.00
35151;BME280;55720;51.972;4.624;2022-07-01T07:14:00;101804.59;;;24.15;100.00
35151;BME280;55720;51.972;4.624;2022-07-01T07:16:26;101824.91;;;22.07;100.00
35151;BME280;55720;51.972;4.624;2022-07-01T07:18:51;101823.91;;;21.45;100.00
35151;BME280;55720;51.972;4.624;2022-07-01T07:21:17;101801.25;;;21.20;100.00
35151;BME280;55720;51.972;4.624;2022-07-01T07:23:42;101783.97;;;21.85;100.00
35151;BME280;55720;51.972;4.624;2022-07-01T07:26:09;101789.31;;;21.20;100.00
35151;BME280;55720;51.972;4.624;2022-07-01T07:28:34;101775.03;;;20.65;100.00
35151;BME280;55720;51.972;4.624;2022-07-01T07:31:00;101741.81;;;20.86;100.00
35151;BME280;55720;51.972;4.624;2022-07-01T07:33:25;101745.88;;;20.06;100.00
35151;BME280;55720;51.972;4.624;2022-07-01T07:35:51;101723.50;;;19.54;100.00
35151;BME280;55720;51.972;4.624;2022-07-01T07:38:16;101701.47;;;19.45;100.00
35151;BME280;55720;51.972;4.624;2022-07-01T07:40:41;101689.13;;;19.24;100.00
35151;BME280;55720;51.972;4.624;2022-07-01T07:43:07;101687.97;;;19.70;100.00
35151;BME280;55720;51.972;4.624;2022-07-01T07:45:33;101699.94;;;20.27;100.00
35151;BME280;55720;51.972;4.624;2022-07-01T07:47:59;101702.13;;;24.79;100.00
35151;BME280;55720;51.972;4.624;2022-07-01T07:50:25;101821.72;;;27.01;100.00
35151;BME280;55720;51.972;4.624;2022-07-01T07:52:51;101804.06;;;30.01;100.00
35151;BME280;55720;51.972;4.624;2022-07-01T07:55:16;101761.22;;;30.72;100.00
35151;BME280;55720;51.972;4.624;2022-07-01T07:57:42;101781.28;;;27.95;100.00
35151;BME280;55720;51.972;4.624;2022-07-01T08:00:09;101832.19;;;23.74;100.00
35151;BME280;55720;51.972;4.624;2022-07-01T08:02:35;101840.22;;;24.53;100.00
35151;BME280;55720;51.972;4.624;2022-07-01T08:05:00;101809.81;;;26.86;100.00
35151;BME280;55720;51.972;4.624;2022-07-01T08:07:26;101797.25;;;28.28;100.00
35151;BME280;55720;51.972;4.624;2022-07-01T08:09:51;101776.78;;;29.22;100.00
35151;BME280;55720;51.972;4.624;2022-07-01T08:12:17;101783.91;;;28.05;100.00
35151;BME280;55720;51.972;4.624;2022-07-01T08:14:43;101824.78;;;25.28;100.00
35151;BME280;55720;51.972;4.624;2022-07-01T08:17:09;101873.84;;;21.87;100.00
35151;BME280;55720;51.972;4.624;2022-07-01T08:19:34;101884.88;;;21.36;100.00
35151;BME280;55720;51.972;4.624;2022-07-01T08:21:59;101871.34;;;21.78;100.00
35151;BME280;55720;51.972;4.624;2022-07-01T08:24:25;101863.06;;;24.87;100.00
35151;BME280;55720;51.972;4.624;2022-07-01T08:26:50;101832.78;;;28.25;100.00
35151;BME280;55720;51.972;4.624;2022-07-01T08:29:16;101799.38;;;28.44;100.00
35151;BME280;55720;51.972;4.624;2022-07-01T08:31:41;101799.88;;;29.73;100.00
35151;BME280;55720;51.972;4.624;2022-07-01T08:34:07;101780.09;;;31.71;100.00
35151;BME280;55720;51.972;4.624;2022-07-01T08:36:34;101756.44;;;33.60;82.47
35151;BME280;55720;51.972;4.624;2022-07-01T08:39:00;101760.34;;;33.14;74.43
35151;BME280;55720;51.972;4.624;2022-07-01T08:41:25;101758.44;;;33.51;70.92
35151;BME280;55720;51.972;4.624;2022-07-01T08:43:51;101767.97;;;32.95;70.33
35151;BME280;55720;51.972;4.624;2022-07-01T08:46:16;101773.25;;;30.76;66.65
35151;BME280;55720;51.972;4.624;2022-07-01T08:48:43;101819.47;;;29.48;86.15
35151;BME280;55720;51.972;4.624;2022-07-01T08:51:09;101798.09;;;31.14;79.21
35151;BME280;55720;51.972;4.624;2022-07-01T08:53:35;101787.00;;;30.33;66.73
35151;BME280;55720;51.972;4.624;2022-07-01T08:56:01;101870.97;;;25.97;100.00
35151;BME280;55720;51.972;4.624;2022-07-01T08:58:48;101878.13;;;26.05;100.00
35151;BME280;55720;51.972;4.624;2022-07-01T09:01:19;101852.63;;;28.68;100.00
35151;BME280;55720;51.972;4.624;2022-07-01T09:03:57;101823.72;;;29.00;91.93
35151;BME280;55720;51.972;4.624;2022-07-01T09:06:33;101829.00;;;28.55;90.86
35151;BME280;55720;51.972;4.624;2022-07-01T09:09:11;101815.88;;;29.27;79.16
35151;BME280;55720;51.972;4.624;2022-07-01T09:11:43;101835.75;;;27.38;81.13
35151;BME280;55720;51.972;4.624;2022-07-01T09:14:11;101851.06;;;26.69;93.82
35151;BME280;55720;51.972;4.624;2022-07-01T09:16:48;101836.91;;;28.21;88.24
35151;BME280;55720;51.972;4.624;2022-07-01T09:19:15;101850.22;;;27.06;94.20
35151;BME280;55720;51.972;4.624;2022-07-01T09:21:41;101845.03;;;27.92;94.13
35151;BME280;55720;51.972;4.624;2022-07-01T09:26:55;101860.78;;;26.99;100.00
35151;BME280;55720;51.972;4.624;2022-07-01T09:29:25;101855.91;;;26.24;95.76
35151;BME280;55720;51.972;4.624;2022-07-01T09:31:51;101875.16;;;25.74;100.00
35151;BME280;55720;51.972;4.624;2022-07-01T09:34:16;101862.25;;;26.76;99.40
35151;BME280;55720;51.972;4.624;2022-07-01T09:36:51;101838.47;;;27.72;88.59
35151;BME280;55720;51.972;4.624;2022-07-01T09:39:17;101857.44;;;26.32;87.98
35151;BME280;55720;51.972;4.624;2022-07-01T09:41:42;101891.53;;;25.00;100.00
35151;BME280;55720;51.972;4.624;2022-07-01T09:44:08;101905.03;;;23.52;100.00
35151;BME280;55720;51.972;4.624;2022-07-01T09:46:34;101915.66;;;24.23;100.00
35151;BME280;55720;51.972;4.624;2022-07-01T09:49:00;101900.41;;;25.81;100.00
35151;BME280;55720;51.972;4.624;2022-07-01T09:51:26;101904.31;;;25.11;100.00
35151;BME280;55720;51.972;4.624;2022-07-01T09:53:51;101917.25;;;24.24;100.00
35151;BME280;55720;51.972;4.624;2022-07-01T09:56:17;101910.41;;;24.95;100.00
35151;BME280;55720;51.972;4.624;2022-07-01T09:58:42;101882.19;;;26.04;100.00
35151;BME280;55720;51.972;4.624;2022-07-01T10:01:08;101910.81;;;24.76;100.00
35151;BME280;55720;51.972;4.624;2022-07-01T10:03:36;101915.94;;;23.75;100.00
35151;BME280;55720;51.972;4.624;2022-07-01T10:14:03;101918.97;;;25.75;100.00
35151;BME280;55720;51.972;4.624;2022-07-01T10:16:30;101913.97;;;25.14;100.00
35151;BME280;55720;51.972;4.624;2022-07-01T10:18:56;101931.41;;;25.74;100.00
35151;BME280;55720;51.972;4.624;2022-07-01T10:21:29;101925.28;;;24.22;100.00
35151;BME280;55720;51.972;4.624;2022-07-01T10:24:12;101945.16;;;23.74;100.00
35151;BME280;55720;51.972;4.624;2022-07-01T10:26:38;101940.44;;;24.07;100.00
35151;BME280;55720;51.972;4.624;2022-07-01T10:29:03;101942.53;;;24.73;100.00
35151;BME280;55720;51.972;4.624;2022-07-01T10:31:38;101944.34;;;23.70;100.00
35151;BME280;55720;51.972;4.624;2022-07-01T10:34:04;101952.97;;;23.33;100.00
35151;BME280;55720;51.972;4.624;2022-07-01T10:36:33;101975.22;;;22.10;100.00
35151;BME280;55720;51.972;4.624;2022-07-01T10:44:18;101980.09;;;22.20;100.00
35151;BME280;55720;51.972;4.624;2022-07-01T10:46:49;101972.34;;;22.47;100.00
35151;BME280;55720;51.972;4.624;2022-07-01T10:52:08;101940.91;;;24.19;100.00
35151;BME280;55720;51.972;4.624;2022-07-01T11:02:28;101943.13;;;23.61;100.00
35151;BME280;55720;51.972;4.624;2022-07-01T11:04:56;101959.25;;;23.09;100.00
35151;BME280;55720;51.972;4.624;2022-07-01T11:07:27;101947.94;;;23.67;100.00
35151;BME280;55720;51.972;4.624;2022-07-01T11:09:53;101950.72;;;22.88;100.00
35151;BME280;55720;51.972;4.624;2022-07-01T11:12:20;101955.59;;;23.01;100.00
35151;BME280;55720;51.972;4.624;2022-07-01T11:14:47;101947.06;;;22.80;100.00
35151;BME280;55720;51.972;4.624;2022-07-01T11:17:13;101949.00;;;22.29;100.00
35151;BME280;55720;51.972;4.624;2022-07-01T11:19:39;101953.31;;;22.19;100.00
35151;BME280;55720;51.972;4.624;2022-07-01T11:22:04;101950.00;;;22.06;100.00
35151;BME280;55720;51.972;4.624;2022-07-01T11:24:31;101962.09;;;21.84;100.00
35151;BME280;55720;51.972;4.624;2022-07-01T11:27:05;101975.72;;;21.26;100.00
35151;BME280;55720;51.972;4.624;2022-07-01T11:29:31;101994.13;;;21.04;100.00
35151;BME280;55720;51.972;4.624;2022-07-01T11:31:56;101994.16;;;20.82;100.00
35151;BME280;55720;51.972;4.624;2022-07-01T11:34:21;102000.22;;;20.87;100.00
35151;BME280;55720;51.972;4.624;2022-07-01T11:36:47;102003.34;;;20.37;100.00
35151;BME280;55720;51.972;4.624;2022-07-01T11:39:33;101999.72;;;20.13;100.00
35151;BME280;55720;51.972;4.624;2022-07-01T11:42:01;102017.53;;;20.09;100.00
35151;BME280;55720;51.972;4.624;2022-07-01T11:44:32;102019.56;;;19.89;100.00
35151;BME280;55720;51.972;4.624;2022-07-01T11:46:59;102049.50;;;19.57;100.00
35151;BME280;55720;51.972;4.624;2022-07-01T11:49:25;102057.66;;;19.15;100.00
35151;BME280;55720;51.972;4.624;2022-07-01T11:51:57;102044.56;;;19.00;100.00
35151;BME280;55720;51.972;4.624;2022-07-01T11:54:23;102032.19;;;18.82;100.00
35151;BME280;55720;51.972;4.624;2022-07-01T11:56:48;102013.28;;;18.29;100.00
35151;BME280;55720;51.972;4.624;2022-07-01T11:59:14;101981.53;;;17.86;100.00
35151;BME280;55720;51.972;4.624;2022-07-01T12:01:39;101929.19;;;17.88;100.00
35151;BME280;55720;51.972;4.624;2022-07-01T12:04:07;101872.41;;;18.01;100.00
35151;BME280;55720;51.972;4.624;2022-07-01T12:06:34;101829.25;;;18.07;100.00
35151;BME280;55720;51.972;4.624;2022-07-01T12:09:02;101809.97;;;18.30;100.00
35151;BME280;55720;51.972;4.624;2022-07-01T12:11:28;101797.63;;;18.47;100.00
35151;BME280;55720;51.972;4.624;2022-07-01T12:13:55;101770.34;;;18.87;100.00
35151;BME280;55720;51.972;4.624;2022-07-01T12:16:21;101746.94;;;19.30;100.00
35151;BME280;55720;51.972;4.624;2022-07-01T12:18:55;101736.41;;;19.20;100.00
35151;BME280;55720;51.972;4.624;2022-07-01T12:21:22;101725.56;;;19.57;100.00
35151;BME280;55720;51.972;4.624;2022-07-01T12:24:08;101710.38;;;20.03;100.00
35151;BME280;55720;51.972;4.624;2022-07-01T12:26:34;101696.09;;;20.65;100.00
35151;BME280;55720;51.972;4.624;2022-07-01T12:29:01;101685.06;;;21.56;100.00
35151;BME280;55720;51.972;4.624;2022-07-01T12:31:28;101705.19;;;21.28;100.00
35151;BME280;55720;51.972;4.624;2022-07-01T12:33:53;101715.22;;;21.80;100.00
35151;BME280;55720;51.972;4.624;2022-07-01T12:36:19;101756.44;;;21.09;100.00
35151;BME280;55720;51.972;4.624;2022-07-01T12:38:44;101776.59;;;21.26;100.00
35151;BME280;55720;51.972;4.624;2022-07-01T12:41:30;101826.69;;;20.82;100.00
35151;BME280;55720;51.972;4.624;2022-07-01T12:44:20;101891.91;;;20.70;100.00
35151;BME280;55720;51.972;4.624;2022-07-01T12:46:46;101925.13;;;20.52;100.00
35151;BME280;55720;51.972;4.624;2022-07-01T12:49:20;101947.25;;;20.65;100.00
35151;BME280;55720;51.972;4.624;2022-07-01T12:51:46;101936.91;;;20.65;100.00
35151;BME280;55720;51.972;4.624;2022-07-01T12:54:34;101902.91;;;20.59;100.00
35151;BME280;55720;51.972;4.624;2022-07-01T12:57:02;101878.88;;;20.78;100.00
35151;BME280;55720;51.972;4.624;2022-07-01T12:59:27;101880.81;;;21.30;100.00
35151;BME280;55720;51.972;4.624;2022-07-01T13:01:53;101907.41;;;21.20;100.00
35151;BME280;55720;51.972;4.624;2022-07-01T13:04:26;101920.19;;;20.95;100.00
35151;BME280;55720;51.972;4.624;2022-07-01T13:06:52;101932.47;;;21.17;100.00